Time;durP1;ratioP1;P1;durP2;ratioP2;P2;SDS_P1;SDS_P2;PMS_P1;PMS_P2;Temp;Humidity;BMP_temperature;BMP_pressure;BME280_temperature;BME280_humidity;BME280_pressure;Samples;Min_cycle;Max_cycle;Signal;HPM_P1;HPM_P2
2024/02/12 00:02:03;;;;;;;;;;;;;;;-2.84;75.96;100853.72;5076015;28;19925;-76
2024/02/12 00:04:29;;;;;;;;;;;;;;;-2.82;76.37;100849.50;5076152;28;19998;-76
2024/02/12 00:06:56;;;;;;;;;;;;;;;-2.83;76.58;100839.22;5075913;28;20365;-76
2024/02/12 00:09:23;;;;;;;;;;;;;;;-2.82;76.04;100840.97;5075840;28;19978;-76
2024/02/12 00:11:54;;;;;;;;;;;;;;;-2.81;76.61;100837.56;5081660;28;20376;-76
2024/02/12 00:14:22;;;;;;;;;;;;;;;-2.81;76.69;100837.56;5095965;28;20330;-76
2024/02/12 00:16:48;;;;;;;;;;;;;;;-2.81;76.41;100837.56;5096146;28;20421;-77
2024/02/12 00:19:17;;;;;;;;;;;;;;;-2.81;77.47;100832.47;5095937;28;19931;-76
2024/02/12 00:21:47;;;;;;;;;;;;;;;-2.83;77.14;100836.66;5096037;28;19930;-76
2024/02/12 00:24:15;;;;;;;;;;;;;;;-2.83;77.29;100839.22;5095753;28;19963;-77
2024/02/12 00:26:42;;;;;;;;;;;;;;;-2.82;77.14;100840.97;5096110;28;19928;-76
2024/02/12 00:29:13;;;;;;;;;;;;;;;-2.82;77.16;100840.97;5095771;28;19934;-76
2024/02/12 00:31:39;;;;;;;;;;;;;;;-2.82;77.16;100835.84;5095874;28;19946;-76
2024/02/12 00:34:06;;;;;;;;;;;;;;;-2.83;77.29;100827.28;5095718;28;19928;-76
2024/02/12 00:36:32;;;;;;;;;;;;;;;-2.84;77.85;100837.47;5095500;28;19928;-75
2024/02/12 00:38:59;;;;;;;;;;;;;;;-2.86;76.88;100832.28;5086778;28;19924;-77
2024/02/12 00:41:26;;;;;;;;;;;;;;;-2.87;77.53;100848.50;5075222;28;19931;-76
2024/02/12 00:43:53;;;;;;;;;;;;;;;-2.87;77.14;100842.50;5075631;28;19972;-76
2024/02/12 00:46:21;;;;;;;;;;;;;;;-2.91;77.99;100831.25;5075228;28;19925;-76
2024/02/12 00:48:48;;;;;;;;;;;;;;;-2.91;77.80;100828.72;5075254;28;19931;-77
2024/02/12 00:51:15;;;;;;;;;;;;;;;-2.90;77.60;100834.72;5075486;28;20015;-76
2024/02/12 00:53:42;;;;;;;;;;;;;;;-2.89;77.42;100839.00;5075042;28;19976;-77
2024/02/12 00:56:09;;;;;;;;;;;;;;;-2.91;77.95;100820.16;5075431;28;20301;-76
2024/02/12 00:58:35;;;;;;;;;;;;;;;-2.90;77.78;100824.47;5075054;28;20016;-76
2024/02/12 01:01:03;;;;;;;;;;;;;;;-2.91;77.92;100821.03;5075189;28;19946;-76
2024/02/12 01:03:32;;;;;;;;;;;;;;;-2.92;77.49;100826.13;5074978;28;19932;-76
2024/02/12 01:05:58;;;;;;;;;;;;;;;-2.92;77.65;100824.41;5075004;28;20336;-76
2024/02/12 01:08:25;;;;;;;;;;;;;;;-2.93;78.12;100816.69;5074970;28;19924;-74
2024/02/12 01:10:52;;;;;;;;;;;;;;;-2.94;78.08;100812.38;5074721;28;19931;-75
2024/02/12 01:13:19;;;;;;;;;;;;;;;-2.95;78.17;100819.19;5074846;28;19934;-75
2024/02/12 01:15:47;;;;;;;;;;;;;;;-2.95;78.45;100824.31;5074976;28;19924;-75
2024/02/12 01:18:15;;;;;;;;;;;;;;;-2.96;78.44;100824.28;5074901;28;19931;-71
2024/02/12 01:20:44;;;;;;;;;;;;;;;-2.97;78.19;100810.59;5074626;28;19925;-71
2024/02/12 01:23:13;;;;;;;;;;;;;;;-2.96;79.01;100819.16;5074450;28;20003;-71
2024/02/12 01:25:42;;;;;;;;;;;;;;;-2.96;77.89;100811.50;5074722;28;20355;-71
2024/02/12 01:28:09;;;;;;;;;;;;;;;-2.97;78.38;100807.16;5074411;28;19928;-71
2024/02/12 01:30:36;;;;;;;;;;;;;;;-2.97;78.93;100807.16;5074559;28;19924;-71
2024/02/12 01:33:02;;;;;;;;;;;;;;;-2.97;78.88;100809.72;5074198;28;19931;-71
2024/02/12 01:35:29;;;;;;;;;;;;;;;-2.99;78.66;100821.59;5074396;28;20381;-71
2024/02/12 01:37:57;;;;;;;;;;;;;;;-2.99;78.49;100819.94;5074280;28;19931;-71
2024/02/12 01:40:24;;;;;;;;;;;;;;;-2.98;78.83;100828.47;5074295;28;19978;-71
2024/02/12 01:42:50;;;;;;;;;;;;;;;-2.99;78.91;100811.34;5074152;28;19935;-71
2024/02/12 01:45:23;;;;;;;;;;;;;;;-3.00;79.23;100815.63;5074284;28;19929;-71
2024/02/12 01:47:57;;;;;;;;;;;;;;;-3.00;79.06;100814.75;5074017;28;19924;-71
2024/02/12 01:50:24;;;;;;;;;;;;;;;-3.00;78.36;100814.75;5074078;28;20030;-71
2024/02/12 01:52:51;;;;;;;;;;;;;;;-2.99;79.03;100806.25;5073902;28;19925;-71
2024/02/12 01:55:21;;;;;;;;;;;;;;;-3.00;79.26;100802.81;5074060;28;20007;-72
2024/02/12 01:57:50;;;;;;;;;;;;;;;-3.00;79.02;100810.50;5074007;28;20284;-71
2024/02/12 02:00:17;;;;;;;;;;;;;;;-3.01;78.58;100798.53;5073968;28;19928;-71
2024/02/12 02:02:44;;;;;;;;;;;;;;;-3.01;79.29;100797.66;5073694;28;19982;-71
2024/02/12 02:05:12;;;;;;;;;;;;;;;-3.02;79.07;100807.03;5073891;28;20023;-71
2024/02/12 02:07:38;;;;;;;;;;;;;;;-3.00;79.03;100802.81;5073516;28;20023;-71
2024/02/12 02:10:09;;;;;;;;;;;;;;;-3.01;79.34;100808.75;5074156;28;20297;-72
2024/02/12 02:12:37;;;;;;;;;;;;;;;-3.00;78.51;100799.38;5073635;28;20362;-71
2024/02/12 02:15:05;;;;;;;;;;;;;;;-3.01;78.93;100798.53;5073117;28;19928;-71
2024/02/12 02:17:31;;;;;;;;;;;;;;;-3.01;78.88;100802.78;5073471;28;20017;-76
2024/02/12 02:19:59;;;;;;;;;;;;;;;-3.01;78.68;100793.41;5073673;28;19928;-76
2024/02/12 02:22:26;;;;;;;;;;;;;;;-3.01;78.92;100793.41;5073296;28;19925;-76
2024/02/12 02:24:54;;;;;;;;;;;;;;;-3.00;78.80;100799.38;5073437;28;19930;-76
2024/02/12 02:27:20;;;;;;;;;;;;;;;-3.01;79.44;100790.84;5073350;28;20011;-75
2024/02/12 02:29:49;;;;;;;;;;;;;;;-3.03;79.35;100785.66;5073581;28;19939;-76
2024/02/12 02:32:16;;;;;;;;;;;;;;;-3.03;79.02;100795.03;5073518;28;19986;-77
2024/02/12 02:34:43;;;;;;;;;;;;;;;-3.04;78.34;100789.06;5073218;28;19924;-76
2024/02/12 02:37:11;;;;;;;;;;;;;;;-3.04;79.01;100788.19;5073529;28;19924;-73
2024/02/12 02:39:37;;;;;;;;;;;;;;;-3.06;78.47;100794.94;5073003;28;19934;-74
2024/02/12 02:42:05;;;;;;;;;;;;;;;-3.08;78.20;100783.78;5073236;28;19924;-74
2024/02/12 02:44:33;;;;;;;;;;;;;;;-3.08;78.10;100787.22;5073244;28;19929;-74
2024/02/12 02:47:00;;;;;;;;;;;;;;;-3.09;78.24;100800.81;5073415;28;19935;-73
2024/02/12 02:49:26;;;;;;;;;;;;;;;-3.11;78.42;100799.03;5072929;28;19925;-73
2024/02/12 02:51:53;;;;;;;;;;;;;;;-3.14;78.41;100801.50;5072994;28;19924;-73
2024/02/12 02:54:21;;;;;;;;;;;;;;;-3.16;78.00;100804.00;5073205;28;19931;-74
2024/02/12 02:56:48;;;;;;;;;;;;;;;-3.18;78.23;100787.72;5073064;28;20054;-73
2024/02/12 02:59:16;;;;;;;;;;;;;;;-3.18;78.22;100797.09;5073017;28;20254;-74
2024/02/12 03:01:43;;;;;;;;;;;;;;;-3.21;78.16;100795.31;5073195;28;19930;-73
2024/02/12 03:04:13;;;;;;;;;;;;;;;-3.22;77.95;100806.38;5073111;28;19930;-73
2024/02/12 03:06:41;;;;;;;;;;;;;;;-3.24;78.15;100797.78;5073021;28;19948;-73
2024/02/12 03:09:07;;;;;;;;;;;;;;;-3.23;77.85;100803.75;5073163;28;19934;-73
2024/02/12 03:11:37;;;;;;;;;;;;;;;-3.25;78.15;100816.47;5072772;28;19932;-73
2024/02/12 03:14:04;;;;;;;;;;;;;;;-3.25;77.89;100803.69;5073259;28;19947;-73
2024/02/12 03:16:32;;;;;;;;;;;;;;;-3.26;78.14;100802.81;5073058;28;20274;-74
2024/02/12 03:18:59;;;;;;;;;;;;;;;-3.27;77.89;100806.22;5072782;28;19986;-74
2024/02/12 03:21:26;;;;;;;;;;;;;;;-3.29;78.29;100807.84;5072741;28;20020;-73
2024/02/12 03:23:53;;;;;;;;;;;;;;;-3.31;77.71;100816.28;5072768;28;19925;-73
2024/02/12 03:26:20;;;;;;;;;;;;;;;-3.31;77.57;100808.59;5073028;28;19925;-73
2024/02/12 03:28:49;;;;;;;;;;;;;;;-3.34;77.41;100804.25;5077497;28;19924;-80
2024/02/12 03:31:15;;;;;;;;;;;;;;;-3.34;77.85;100809.34;5077390;28;19970;-80
2024/02/12 03:33:48;;;;;;;;;;;;;;;-3.34;78.03;100800.81;5077308;28;20382;-78
2024/02/12 03:36:15;;;;;;;;;;;;;;;-3.36;77.52;100807.56;5077181;28;19931;-80
2024/02/12 03:38:42;;;;;;;;;;;;;;;-3.38;77.69;100811.78;5077165;28;20019;-79
2024/02/12 03:41:18;;;;;;;;;;;;;;;-3.39;77.51;100817.69;5077087;28;20316;-80
2024/02/12 03:43:44;;;;;;;;;;;;;;;-3.41;77.18;100812.53;5077308;28;19924;-80
2024/02/12 03:46:19;;;;;;;;;;;;;;;-3.41;77.22;100804.00;5077096;28;20296;-79
2024/02/12 03:59:53;;;;;;;;;;;;;;;-3.50;76.87;100813.09;5076372;28;19974;-75
2024/02/12 04:02:20;;;;;;;;;;;;;;;-3.51;76.72;100796.00;5076412;28;20316;-74
2024/02/12 04:04:49;;;;;;;;;;;;;;;-3.51;76.96;100806.22;5076071;28;19925;-75
2024/02/12 04:07:15;;;;;;;;;;;;;;;-3.52;76.61;100806.19;5075993;28;20015;-75
2024/02/12 04:09:42;;;;;;;;;;;;;;;-3.52;76.25;100798.50;5075988;28;19928;-74
2024/02/12 04:12:11;;;;;;;;;;;;;;;-3.54;76.54;100806.13;5076005;28;19933;-74
2024/02/12 04:14:38;;;;;;;;;;;;;;;-3.54;76.47;100797.56;5075714;28;19925;-75
2024/02/12 04:17:05;;;;;;;;;;;;;;;-3.55;76.15;100799.28;5075927;28;19925;-76
2024/02/12 04:19:32;;;;;;;;;;;;;;;-3.56;76.64;100801.75;5075612;28;19929;-75
2024/02/12 04:22:01;;;;;;;;;;;;;;;-3.57;76.49;100805.13;5075765;28;20007;-75
2024/02/12 04:24:29;;;;;;;;;;;;;;;-3.57;76.51;100800.91;5075821;28;19925;-74
2024/02/12 04:26:55;;;;;;;;;;;;;;;-3.59;76.46;100800.00;5075560;28;19928;-75
2024/02/12 04:29:24;;;;;;;;;;;;;;;-3.59;76.20;100788.88;5075680;28;19930;-74
2024/02/12 04:31:52;;;;;;;;;;;;;;;-3.60;76.34;100795.66;5075370;28;20020;-75
2024/02/12 04:34:18;;;;;;;;;;;;;;;-3.60;76.49;100795.66;5075712;28;19970;-74
2024/02/12 04:36:45;;;;;;;;;;;;;;;-3.60;76.45;100789.69;5075549;28;20413;-80
2024/02/12 04:39:15;;;;;;;;;;;;;;;-3.63;76.38;100775.13;5075200;28;19925;-79
2024/02/12 04:41:42;;;;;;;;;;;;;;;-3.62;76.05;100793.88;5076093;28;19972;-80
2024/02/12 04:44:09;;;;;;;;;;;;;;;-3.63;76.42;100793.00;5075878;28;19925;-79
2024/02/12 04:46:36;;;;;;;;;;;;;;;-3.63;76.36;100800.69;5075823;28;19931;-80
2024/02/12 04:49:03;;;;;;;;;;;;;;;-3.63;76.32;100805.78;5075906;28;20008;-80
2024/02/12 04:51:31;;;;;;;;;;;;;;;-3.64;75.95;100804.06;5075961;28;19925;-79
2024/02/12 04:53:57;;;;;;;;;;;;;;;-3.65;76.32;100802.31;5075606;28;20023;-80
2024/02/12 04:56:26;;;;;;;;;;;;;;;-3.66;76.14;100800.56;5075874;28;20270;-80
2024/02/12 04:58:52;;;;;;;;;;;;;;;-3.68;75.87;100797.09;5075103;28;19924;-77
2024/02/12 05:01:19;;;;;;;;;;;;;;;-3.68;76.01;100791.97;5075016;28;19924;-76
2024/02/12 05:03:47;;;;;;;;;;;;;;;-3.70;75.76;100791.06;5075178;28;19931;-77
2024/02/12 05:06:16;;;;;;;;;;;;;;;-3.72;76.16;100783.34;5074970;28;19971;-77
2024/02/12 05:08:42;;;;;;;;;;;;;;;-3.73;76.09;100783.28;5074928;28;20351;-75
2024/02/12 05:11:09;;;;;;;;;;;;;;;-3.74;76.30;100786.66;5074883;28;19930;-76
2024/02/12 05:13:38;;;;;;;;;;;;;;;-3.73;76.34;100783.28;5074916;28;20278;-76
2024/02/12 05:16:08;;;;;;;;;;;;;;;-3.74;75.98;100789.22;5074674;28;19971;-76
2024/02/12 05:24:11;;;;;;;;;;;;;;;-3.76;75.84;100784.06;5074603;28;19943;-76
2024/02/12 05:26:39;;;;;;;;;;;;;;;-3.77;76.18;100778.88;5074460;28;19925;-76
2024/02/12 05:29:08;;;;;;;;;;;;;;;-3.77;76.14;100777.19;5074393;28;19925;-76
2024/02/12 05:31:35;;;;;;;;;;;;;;;-3.77;75.87;100771.19;5074394;28;19970;-76
2024/02/12 05:34:02;;;;;;;;;;;;;;;-3.76;76.11;100783.16;5074459;28;19932;-76
2024/02/12 05:36:29;;;;;;;;;;;;;;;-3.75;76.18;100769.59;5091181;28;20381;-76
2024/02/12 05:38:56;;;;;;;;;;;;;;;-3.76;76.12;100773.81;5094440;28;19924;-76
2024/02/12 05:41:22;;;;;;;;;;;;;;;-3.76;76.29;100773.81;5094567;28;19924;-76
2024/02/12 05:43:49;;;;;;;;;;;;;;;-3.74;75.85;100776.41;5094390;28;19931;-77
2024/02/12 05:46:17;;;;;;;;;;;;;;;-3.75;76.36;100773.00;5094502;28;19924;-76
2024/02/12 05:48:43;;;;;;;;;;;;;;;-3.73;76.46;100778.19;5094377;28;19924;-72
2024/02/12 05:51:10;;;;;;;;;;;;;;;-3.72;76.14;100775.66;5093425;28;19930;-73
2024/02/12 05:53:37;;;;;;;;;;;;;;;-3.73;76.28;100776.50;5094191;28;19924;-72
2024/02/12 05:56:04;;;;;;;;;;;;;;;-3.73;76.31;100778.19;5094292;28;19924;-71
2024/02/12 05:58:30;;;;;;;;;;;;;;;-3.74;76.13;100784.97;5094119;28;20168;-70
2024/02/12 06:00:57;;;;;;;;;;;;;;;-3.73;75.97;100778.19;5094056;28;19924;-72
2024/02/12 06:03:25;;;;;;;;;;;;;;;-3.73;76.50;100780.75;5094075;28;20034;-72
2024/02/12 06:05:51;;;;;;;;;;;;;;;-3.73;76.56;100775.63;5094011;28;19932;-73
2024/02/12 06:08:18;;;;;;;;;;;;;;;-3.72;76.44;100774.78;5094643;28;20396;-81
2024/02/12 06:10:46;;;;;;;;;;;;;;;-3.72;76.42;100770.53;5094702;28;19928;-80
2024/02/12 06:13:13;;;;;;;;;;;;;;;-3.71;76.43;100771.41;5094733;28;20025;-81
2024/02/12 06:15:39;;;;;;;;;;;;;;;-3.70;75.89;100775.72;5094611;28;20396;-80
2024/02/12 06:18:06;;;;;;;;;;;;;;;-3.71;76.62;100781.63;5094137;28;19924;-79
2024/02/12 06:20:34;;;;;;;;;;;;;;;-3.69;76.78;100785.13;5094458;28;19924;-80
2024/02/12 06:23:01;;;;;;;;;;;;;;;-3.68;76.78;100786.00;5094233;28;19928;-80
2024/02/12 06:25:28;;;;;;;;;;;;;;;-3.68;76.68;100781.75;5094380;28;19924;-80
2024/02/12 06:27:54;;;;;;;;;;;;;;;-3.68;76.83;100789.41;5094248;28;19971;-80
2024/02/12 06:30:22;;;;;;;;;;;;;;;-3.67;76.90;100787.75;5094203;28;19930;-80
2024/02/12 06:32:49;;;;;;;;;;;;;;;-3.67;76.75;100783.50;5094069;28;20452;-80
2024/02/12 06:35:16;;;;;;;;;;;;;;;-3.66;76.86;100782.69;5094571;28;19924;-82
2024/02/12 06:37:46;;;;;;;;;;;;;;;-3.64;76.77;100783.63;5085489;28;19989;-83
2024/02/12 06:40:13;;;;;;;;;;;;;;;-3.63;76.72;100785.34;5074120;28;19924;-82
2024/02/12 06:42:41;;;;;;;;;;;;;;;-3.63;76.60;100780.22;5074107;28;19930;-77
2024/02/12 06:45:08;;;;;;;;;;;;;;;-3.62;76.88;100786.22;5073399;28;20297;-76
2024/02/12 06:47:35;;;;;;;;;;;;;;;-3.62;77.07;100782.00;5073337;28;19931;-77
2024/02/12 06:50:01;;;;;;;;;;;;;;;-3.62;76.93;100782.00;5073370;28;19928;-79
2024/02/12 06:52:28;;;;;;;;;;;;;;;-3.60;76.93;100779.47;5073395;28;19931;-81
2024/02/12 06:54:56;;;;;;;;;;;;;;;-3.61;76.85;100778.59;5074313;28;19931;-81
2024/02/12 06:57:24;;;;;;;;;;;;;;;-3.60;76.72;100780.34;5073941;28;20015;-79
2024/02/12 06:59:50;;;;;;;;;;;;;;;-3.58;76.61;100776.16;5073455;28;19928;-80
2024/02/12 07:02:17;;;;;;;;;;;;;;;-3.58;77.25;100763.38;5073296;28;19924;-78
2024/02/12 07:04:44;;;;;;;;;;;;;;;-3.57;77.45;100775.31;5073075;28;19925;-78
2024/02/12 07:07:11;;;;;;;;;;;;;;;-3.56;77.69;100771.97;5073233;28;20298;-77
2024/02/12 07:09:37;;;;;;;;;;;;;;;-3.56;77.83;100766.84;5073117;28;19935;-76
2024/02/12 07:12:06;;;;;;;;;;;;;;;-3.55;77.73;100772.81;5072888;28;20366;-76
2024/02/12 07:14:33;;;;;;;;;;;;;;;-3.54;77.94;100764.31;5073164;28;19924;-76
2024/02/12 07:17:00;;;;;;;;;;;;;;;-3.52;78.02;100768.69;5073057;28;19960;-76
2024/02/12 07:19:27;;;;;;;;;;;;;;;-3.52;78.30;100778.91;5072838;28;19932;-76
2024/02/12 07:21:53;;;;;;;;;;;;;;;-3.51;78.53;100778.09;5072895;28;19928;-76
2024/02/12 07:24:20;;;;;;;;;;;;;;;-3.51;78.05;100772.97;5072866;28;19931;-76
2024/02/12 07:26:46;;;;;;;;;;;;;;;-3.50;78.33;100792.63;5072933;28;20028;-75
2024/02/12 07:29:15;;;;;;;;;;;;;;;-3.47;78.44;100791.00;5072652;28;20270;-77
2024/02/12 07:31:42;;;;;;;;;;;;;;;-3.47;78.49;100775.66;5072748;28;19931;-76
2024/02/12 07:34:09;;;;;;;;;;;;;;;-3.46;78.54;100787.63;5072839;28;19930;-76
2024/02/12 07:36:41;;;;;;;;;;;;;;;-3.46;78.31;100780.81;5072630;28;19924;-76
2024/02/12 07:39:09;;;;;;;;;;;;;;;-3.44;78.39;100791.09;5071275;28;19978;-76
2024/02/12 07:41:37;;;;;;;;;;;;;;;-3.45;78.35;100790.22;5072623;28;19924;-76
2024/02/12 07:44:05;;;;;;;;;;;;;;;-3.44;79.27;100798.78;5072597;28;20376;-75
2024/02/12 07:46:33;;;;;;;;;;;;;;;-3.43;79.22;100803.94;5072685;28;19978;-76
2024/02/12 07:48:59;;;;;;;;;;;;;;;-3.42;79.20;100795.47;5072543;28;20365;-76
2024/02/12 07:51:27;;;;;;;;;;;;;;;-3.42;79.33;100794.56;5072611;28;19931;-76
2024/02/12 07:53:54;;;;;;;;;;;;;;;-3.42;79.45;100800.56;5072476;28;19975;-76
2024/02/12 07:56:20;;;;;;;;;;;;;;;-3.41;78.98;100809.13;5072708;28;20019;-75
2024/02/12 07:58:47;;;;;;;;;;;;;;;-3.41;79.56;100804.88;5072587;28;20011;-76
2024/02/12 08:01:15;;;;;;;;;;;;;;;-3.41;79.76;100812.53;5072451;28;19928;-76
2024/02/12 08:03:43;;;;;;;;;;;;;;;-3.40;79.03;100800.63;5072530;28;19964;-76
2024/02/12 08:06:10;;;;;;;;;;;;;;;-3.39;79.71;100799.78;5072489;28;19929;-77
2024/02/12 08:08:36;;;;;;;;;;;;;;;-3.38;79.57;100809.22;5072715;28;19925;-79
2024/02/12 08:11:03;;;;;;;;;;;;;;;-3.38;79.93;100804.09;5072868;28;19928;-79
2024/02/12 08:13:32;;;;;;;;;;;;;;;-3.36;80.08;100805.00;5073375;28;19931;-79
2024/02/12 08:16:01;;;;;;;;;;;;;;;-3.37;79.68;100804.13;5076302;28;19931;-80
2024/02/12 08:18:28;;;;;;;;;;;;;;;-3.37;79.82;100811.81;5076434;28;19982;-80
2024/02/12 08:20:56;;;;;;;;;;;;;;;-3.35;79.47;100814.44;5076220;28;19975;-79
2024/02/12 08:23:23;;;;;;;;;;;;;;;-3.34;79.64;100814.47;5076085;28;19932;-80
2024/02/12 08:25:51;;;;;;;;;;;;;;;-3.34;79.40;100811.91;5076256;28;19925;-80
2024/02/12 08:28:18;;;;;;;;;;;;;;;-3.33;79.63;100811.13;5075812;28;20274;-77
2024/02/12 08:30:44;;;;;;;;;;;;;;;-3.31;79.40;100813.72;5075616;28;20385;-78
2024/02/12 08:33:11;;;;;;;;;;;;;;;-3.32;79.24;100822.22;5075658;28;19928;-74
2024/02/12 08:35:38;;;;;;;;;;;;;;;-3.31;79.33;100818.81;5085575;28;19947;-75
2024/02/12 08:38:08;;;;;;;;;;;;;;;-3.30;79.91;100820.59;5075340;28;20395;-74
2024/02/12 08:40:34;;;;;;;;;;;;;;;-3.30;79.47;100815.47;5075420;28;19928;-74
2024/02/12 08:43:01;;;;;;;;;;;;;;;-3.30;79.43;100824.00;5075591;28;19928;-74
2024/02/12 08:45:28;;;;;;;;;;;;;;;-3.29;79.43;100822.31;5075737;28;19932;-75
2024/02/12 08:47:55;;;;;;;;;;;;;;;-3.29;79.69;100820.63;5086651;28;19931;-76
2024/02/12 08:50:21;;;;;;;;;;;;;;;-3.27;79.83;100823.25;5095336;28;19935;-75
2024/02/12 08:52:49;;;;;;;;;;;;;;;-3.26;79.35;100815.63;5095468;28;19924;-79
2024/02/12 08:55:17;;;;;;;;;;;;;;;-3.26;79.15;100823.28;5095574;28;19977;-75
2024/02/12 08:57:44;;;;;;;;;;;;;;;-3.25;78.94;100816.47;5095268;28;19924;-74
2024/02/12 09:00:11;;;;;;;;;;;;;;;-3.26;79.08;100810.50;5095354;28;20023;-75
2024/02/12 09:02:38;;;;;;;;;;;;;;;-3.26;79.28;100819.88;5095280;28;20378;-73
2024/02/12 09:05:10;;;;;;;;;;;;;;;-3.26;79.07;100813.06;5095155;28;19930;-76
2024/02/12 09:07:36;;;;;;;;;;;;;;;-3.27;78.86;100811.31;5095091;28;20037;-75
2024/02/12 09:10:06;;;;;;;;;;;;;;;-3.25;78.97;100811.34;5095057;28;19924;-75
2024/02/12 09:12:37;;;;;;;;;;;;;;;-3.26;78.57;100813.06;5095143;28;20015;-78
2024/02/12 09:15:06;;;;;;;;;;;;;;;-3.23;78.33;100819.97;5095106;28;19924;-79
2024/02/12 09:17:32;;;;;;;;;;;;;;;-3.23;78.71;100807.16;5095305;28;20114;-76
2024/02/12 09:20:00;;;;;;;;;;;;;;;-3.23;78.67;100807.16;5094926;28;20698;-78
2024/02/12 09:22:27;;;;;;;;;;;;;;;-3.24;78.60;100800.31;5095093;28;20309;-76
2024/02/12 09:24:53;;;;;;;;;;;;;;;-3.22;78.51;100818.28;5094951;28;19928;-78
2024/02/12 09:27:20;;;;;;;;;;;;;;;-3.23;77.92;100809.72;5094789;28;19930;-74
2024/02/12 09:29:48;;;;;;;;;;;;;;;-3.22;77.89;100814.06;5094693;28;19925;-75
2024/02/12 09:32:15;;;;;;;;;;;;;;;-3.21;78.59;100804.69;5094954;28;19928;-75
2024/02/12 09:34:42;;;;;;;;;;;;;;;-3.21;77.92;100805.53;5094489;28;19928;-76
2024/02/12 09:37:10;;;;;;;;;;;;;;;-3.20;77.97;100811.53;5094781;28;19928;-71
2024/02/12 09:39:37;;;;;;;;;;;;;;;-3.19;78.02;100800.47;5094270;28;20330;-72
2024/02/12 09:42:05;;;;;;;;;;;;;;;-3.18;77.90;100815.88;5094475;28;19932;-73
2024/02/12 09:44:33;;;;;;;;;;;;;;;-3.17;78.34;100811.63;5094314;28;20392;-73
2024/02/12 09:47:05;;;;;;;;;;;;;;;-3.17;77.87;100817.59;5094345;28;19925;-72
2024/02/12 09:49:32;;;;;;;;;;;;;;;-3.15;77.48;100805.75;5093933;28;19928;-69
2024/02/12 09:51:59;;;;;;;;;;;;;;;-3.15;77.88;100808.31;5093533;28;20397;-70
2024/02/12 09:54:26;;;;;;;;;;;;;;;-3.14;77.93;100804.91;5094387;28;19934;-69
2024/02/12 09:56:53;;;;;;;;;;;;;;;-3.15;78.01;100800.63;5094163;28;20286;-69
2024/02/12 09:59:21;;;;;;;;;;;;;;;-3.15;78.28;100800.63;5094141;28;19924;-69
2024/02/12 10:01:48;;;;;;;;;;;;;;;-3.14;78.52;100804.91;5093756;28;20007;-70
2024/02/12 10:04:16;;;;;;;;;;;;;;;-3.13;78.23;100822.03;5093990;28;19930;-70
2024/02/12 10:06:42;;;;;;;;;;;;;;;-3.12;78.08;100810.97;5094139;28;19924;-70
2024/02/12 10:09:12;;;;;;;;;;;;;;;-3.15;78.32;100808.31;5093920;28;20385;-71
2024/02/12 10:11:39;;;;;;;;;;;;;;;-3.12;78.32;100805.84;5093949;28;20387;-70
2024/02/12 10:14:06;;;;;;;;;;;;;;;-3.11;78.01;100801.59;5093828;28;19971;-68
2024/02/12 10:16:33;;;;;;;;;;;;;;;-3.10;77.89;100798.22;5094006;28;19931;-69
2024/02/12 10:19:00;;;;;;;;;;;;;;;-3.08;78.14;100796.56;5093988;28;20604;-69
2024/02/12 10:21:28;;;;;;;;;;;;;;;-3.08;78.33;100794.00;5093268;28;20015;-69
2024/02/12 10:23:54;;;;;;;;;;;;;;;-3.08;77.93;100791.44;5094069;28;20266;-69
2024/02/12 10:26:24;;;;;;;;;;;;;;;-3.05;78.79;100800.13;5093660;28;19928;-69
2024/02/12 10:28:54;;;;;;;;;;;;;;;-3.05;78.95;100795.00;5093597;28;19925;-69
2024/02/12 10:31:23;;;;;;;;;;;;;;;-3.03;78.70;100800.16;5093572;28;20406;-69
2024/02/12 10:33:51;;;;;;;;;;;;;;;-3.04;78.73;100794.16;5093395;28;20397;-70
2024/02/12 10:36:18;;;;;;;;;;;;;;;-3.01;78.92;100789.97;5088412;28;19950;-72
2024/02/12 10:38:47;;;;;;;;;;;;;;;-3.01;79.17;100792.53;5073207;28;19929;-72
2024/02/12 10:41:17;;;;;;;;;;;;;;;-2.99;78.65;100788.31;5073069;28;19928;-69
2024/02/12 10:43:44;;;;;;;;;;;;;;;-2.99;79.27;100791.78;5073259;28;19931;-69
2024/02/12 10:46:12;;;;;;;;;;;;;;;-2.98;78.85;100801.19;5073244;28;19925;-70
2024/02/12 10:48:44;;;;;;;;;;;;;;;-2.97;78.90;100791.81;5073122;28;19924;-75
2024/02/12 10:51:10;;;;;;;;;;;;;;;-2.96;79.08;100791.00;5073341;28;19963;-76
2024/02/12 10:53:38;;;;;;;;;;;;;;;-2.94;78.71;100789.34;5073038;28;19931;-75
2024/02/12 10:56:08;;;;;;;;;;;;;;;-2.95;78.53;100788.47;5073350;28;20337;-75
2024/02/12 10:58:35;;;;;;;;;;;;;;;-2.92;78.54;100792.84;5073271;28;19974;-76
2024/02/12 11:01:01;;;;;;;;;;;;;;;-2.91;78.82;100784.31;5075170;28;19951;-76
2024/02/12 11:03:32;;;;;;;;;;;;;;;-2.90;79.16;100780.97;5075173;28;19972;-75
2024/02/12 11:06:00;;;;;;;;;;;;;;;-2.88;79.22;100779.28;5073316;28;19930;-75
2024/02/12 11:08:28;;;;;;;;;;;;;;;-2.86;79.00;100772.53;5073283;28;19925;-74
2024/02/12 11:10:59;;;;;;;;;;;;;;;-2.85;78.67;100779.41;5078891;28;19928;-74
2024/02/12 11:13:33;;;;;;;;;;;;;;;-2.82;79.27;100782.94;5092931;28;20291;-75
2024/02/12 11:16:00;;;;;;;;;;;;;;;-2.80;79.64;100775.28;5093047;28;19932;-74
2024/02/12 11:18:26;;;;;;;;;;;;;;;-2.78;79.24;100773.66;5093102;28;19924;-74
2024/02/12 11:20:57;;;;;;;;;;;;;;;-2.75;79.24;100785.69;5092921;28;19978;-74
2024/02/12 11:23:25;;;;;;;;;;;;;;;-2.75;80.09;100768.63;5093006;28;20395;-74
2024/02/12 11:25:54;;;;;;;;;;;;;;;-2.71;80.06;100779.84;5093040;28;19931;-75
2024/02/12 11:28:23;;;;;;;;;;;;;;;-2.69;80.11;100780.75;5092857;28;19924;-74
2024/02/12 11:30:52;;;;;;;;;;;;;;;-2.66;79.91;100775.72;5092881;28;20003;-75
2024/02/12 11:33:19;;;;;;;;;;;;;;;-2.65;80.23;100773.22;5092979;28;19931;-74
2024/02/12 11:35:46;;;;;;;;;;;;;;;-2.62;81.06;100764.78;5092913;28;19924;-74
2024/02/12 11:38:13;;;;;;;;;;;;;;;-2.60;80.64;100766.53;5092873;28;19924;-75
2024/02/12 11:40:40;;;;;;;;;;;;;;;-2.59;80.85;100758.03;5092876;28;19928;-74
2024/02/12 11:43:07;;;;;;;;;;;;;;;-2.54;81.22;100762.44;5092860;28;20381;-74
2024/02/12 11:45:35;;;;;;;;;;;;;;;-2.53;81.05;100766.75;5092447;28;19935;-75
2024/02/12 11:48:13;;;;;;;;;;;;;;;-2.53;81.06;100762.47;5092961;28;19924;-75
2024/02/12 11:50:40;;;;;;;;;;;;;;;-2.50;81.07;100757.44;5096516;28;19924;-73
2024/02/12 11:53:07;;;;;;;;;;;;;;;-2.48;81.38;100760.03;5096632;28;20003;-75
2024/02/12 11:55:34;;;;;;;;;;;;;;;-2.46;81.20;100755.84;5096510;28;20036;-75
2024/02/12 11:58:00;;;;;;;;;;;;;;;-2.44;81.58;100759.31;5096633;28;19924;-77
2024/02/12 12:00:30;;;;;;;;;;;;;;;-2.42;81.86;100752.56;5096345;28;19924;-77
2024/02/12 12:02:56;;;;;;;;;;;;;;;-2.39;81.38;100750.09;5096801;28;20001;-76
2024/02/12 12:05:25;;;;;;;;;;;;;;;-2.38;81.21;100746.69;5094615;28;19924;-80
2024/02/12 12:07:52;;;;;;;;;;;;;;;-2.37;81.16;100750.97;5096297;28;19924;-79
2024/02/12 12:10:22;;;;;;;;;;;;;;;-2.35;81.42;100754.47;5096227;28;20296;-77
2024/02/12 12:12:49;;;;;;;;;;;;;;;-2.33;81.38;100755.38;5096266;28;19930;-79
2024/02/12 12:15:15;;;;;;;;;;;;;;;-2.30;80.79;100750.34;5096171;28;19924;-79
2024/02/12 12:17:42;;;;;;;;;;;;;;;-2.29;80.78;100762.34;5096241;28;19924;-79
2024/02/12 12:20:10;;;;;;;;;;;;;;;-2.28;80.75;100753.84;5096398;28;19931;-78
2024/02/12 12:22:39;;;;;;;;;;;;;;;-2.28;81.35;100753.84;5096050;28;19924;-76
2024/02/12 12:25:06;;;;;;;;;;;;;;;-2.26;81.29;100747.03;5096214;28;19947;-79
2024/02/12 12:27:33;;;;;;;;;;;;;;;-2.26;81.29;100752.16;5096091;28;19942;-80
2024/02/12 12:30:12;;;;;;;;;;;;;;;-2.23;81.03;100751.38;5096098;28;19924;-76
2024/02/12 12:32:41;;;;;;;;;;;;;;;-2.22;81.32;100748.03;5096004;28;19985;-79
2024/02/12 12:35:08;;;;;;;;;;;;;;;-2.21;80.93;100745.47;5080691;28;20270;-79
2024/02/12 12:37:35;;;;;;;;;;;;;;;-2.21;81.11;100745.47;5093905;28;19928;-76
2024/02/12 12:40:08;;;;;;;;;;;;;;;-2.19;80.67;100748.97;5095703;28;19924;-76
2024/02/12 12:42:35;;;;;;;;;;;;;;;-2.19;80.86;100741.28;5095948;28;19928;-76
2024/02/12 12:45:02;;;;;;;;;;;;;;;-2.19;80.94;100728.47;5095924;28;19930;-76
2024/02/12 12:47:28;;;;;;;;;;;;;;;-2.18;80.35;100739.59;5096202;28;19947;-71
2024/02/12 12:49:55;;;;;;;;;;;;;;;-2.18;80.95;100742.16;5095205;28;20399;-71
2024/02/12 12:52:22;;;;;;;;;;;;;;;-2.18;80.68;100753.25;5095302;28;20365;-72
2024/02/12 12:54:49;;;;;;;;;;;;;;;-2.18;80.93;100745.56;5095486;28;20369;-71